Portada
METAR-TAF:

METAR-TAF

Aeroports :

Remada, Tunísia

latitud: 32-19N, longitud: 010-24E, altitud: 300 m

Observació

L'informe es va fer fa 7 hores i 13 minuts, a les 19:00 UTC
Vent 2 kt amb direcció variable
Temperatura 15°C
Humitat 59%
Pressió 1016 hPa
Visibilitat 10 km o més
Núvols disperses a una alçada de 2600 ft
Núvols disperses a una alçada de 3000 ft

METAR: DTTD 181900Z VRB02KT 9999 SCT026 SCT030 15/07 Q1016

Hora: 03:13 (02:13 UTC)


TAF: manca

Observacions i pronòstics meteorològics de més de 4000 aeroports (METAR i TAF).

Les estacions disponibles són els punts grocs i vermells al mapa.

Posi el ratolí al punt desitjat per veure el nom de l'estació.

Feu clic per veure les observacions i els pronòstics meteorològics.

Per canviar el mapa: feu clic els botons verds amb una creu de color negre per apropar; al botó verd amb un guió per allunyar la imatge; o en les fletxes verdes per a mapes adjacents.


METAR-TAF: